sensor_id;sensor_type;location;lat;lon;timestamp;P1;durP1;ratioP1;P2;durP2;ratioP2
21120;SDS011;12519;43.318;21.898;2022-07-23T00:00:35;8.0;;;7.0;;
21120;SDS011;12519;43.318;21.898;2022-07-23T00:05:12;8.0;;;7.0;;
21120;SDS011;12519;43.318;21.898;2022-07-23T00:09:49;8.0;;;7.0;;
21120;SDS011;12519;43.318;21.898;2022-07-23T00:14:26;7.0;;;6.0;;
21120;SDS011;12519;43.318;21.898;2022-07-23T00:19:02;7.0;;;6.0;;
21120;SDS011;12519;43.318;21.898;2022-07-23T00:23:39;8.0;;;6.0;;
21120;SDS011;12519;43.318;21.898;2022-07-23T00:28:15;8.0;;;6.0;;
21120;SDS011;12519;43.318;21.898;2022-07-23T00:32:56;8.0;;;7.0;;
21120;SDS011;12519;43.318;21.898;2022-07-23T00:37:37;8.0;;;7.0;;
21120;SDS011;12519;43.318;21.898;2022-07-23T00:42:13;8.0;;;7.0;;
21120;SDS011;12519;43.318;21.898;2022-07-23T00:46:54;8.0;;;7.0;;
21120;SDS011;12519;43.318;21.898;2022-07-23T00:51:34;8.0;;;7.0;;
21120;SDS011;12519;43.318;21.898;2022-07-23T00:56:11;8.0;;;7.0;;
21120;SDS011;12519;43.318;21.898;2022-07-23T01:00:48;8.0;;;7.0;;
21120;SDS011;12519;43.318;21.898;2022-07-23T01:05:26;8.0;;;7.0;;
21120;SDS011;12519;43.318;21.898;2022-07-23T01:10:06;8.0;;;7.0;;
21120;SDS011;12519;43.318;21.898;2022-07-23T01:14:45;7.0;;;7.0;;
21120;SDS011;12519;43.318;21.898;2022-07-23T01:19:31;7.0;;;7.0;;
21120;SDS011;12519;43.318;21.898;2022-07-23T01:24:10;8.0;;;6.0;;
21120;SDS011;12519;43.318;21.898;2022-07-23T01:28:49;8.0;;;6.0;;
21120;SDS011;12519;43.318;21.898;2022-07-23T01:33:26;9.0;;;6.0;;
21120;SDS011;12519;43.318;21.898;2022-07-23T01:38:04;9.0;;;6.0;;
21120;SDS011;12519;43.318;21.898;2022-07-23T01:42:41;8.0;;;6.0;;
21120;SDS011;12519;43.318;21.898;2022-07-23T01:47:19;8.0;;;6.0;;
21120;SDS011;12519;43.318;21.898;2022-07-23T01:51:57;7.0;;;6.0;;
21120;SDS011;12519;43.318;21.898;2022-07-23T01:56:34;7.0;;;6.0;;
21120;SDS011;12519;43.318;21.898;2022-07-23T02:01:11;6.0;;;6.0;;
21120;SDS011;12519;43.318;21.898;2022-07-23T02:05:48;6.0;;;6.0;;
21120;SDS011;12519;43.318;21.898;2022-07-23T02:10:28;6.0;;;6.0;;
21120;SDS011;12519;43.318;21.898;2022-07-23T02:15:08;6.0;;;6.0;;
21120;SDS011;12519;43.318;21.898;2022-07-23T02:19:46;6.0;;;6.0;;
21120;SDS011;12519;43.318;21.898;2022-07-23T02:24:23;6.0;;;6.0;;
21120;SDS011;12519;43.318;21.898;2022-07-23T02:29:00;6.0;;;6.0;;
21120;SDS011;12519;43.318;21.898;2022-07-23T02:33:40;6.0;;;6.0;;
21120;SDS011;12519;43.318;21.898;2022-07-23T02:38:16;6.0;;;6.0;;
21120;SDS011;12519;43.318;21.898;2022-07-23T02:42:53;7.0;;;6.0;;
21120;SDS011;12519;43.318;21.898;2022-07-23T02:47:30;7.0;;;6.0;;
21120;SDS011;12519;43.318;21.898;2022-07-23T02:52:06;8.0;;;6.0;;
21120;SDS011;12519;43.318;21.898;2022-07-23T02:56:44;8.0;;;6.0;;
21120;SDS011;12519;43.318;21.898;2022-07-23T03:01:21;8.0;;;6.0;;
21120;SDS011;12519;43.318;21.898;2022-07-23T03:05:57;8.0;;;6.0;;
21120;SDS011;12519;43.318;21.898;2022-07-23T03:10:33;8.0;;;6.0;;
21120;SDS011;12519;43.318;21.898;2022-07-23T03:15:10;9.0;;;7.0;;
21120;SDS011;12519;43.318;21.898;2022-07-23T03:19:46;9.0;;;7.0;;
21120;SDS011;12519;43.318;21.898;2022-07-23T03:24:22;11.0;;;10.0;;
21120;SDS011;12519;43.318;21.898;2022-07-23T03:28:58;11.0;;;10.0;;
21120;SDS011;12519;43.318;21.898;2022-07-23T03:33:35;13.0;;;12.0;;
21120;SDS011;12519;43.318;21.898;2022-07-23T03:38:13;13.0;;;12.0;;
21120;SDS011;12519;43.318;21.898;2022-07-23T03:42:50;11.0;;;10.0;;
21120;SDS011;12519;43.318;21.898;2022-07-23T03:47:27;11.0;;;10.0;;
21120;SDS011;12519;43.318;21.898;2022-07-23T03:52:05;9.0;;;8.0;;
21120;SDS011;12519;43.318;21.898;2022-07-23T03:56:42;9.0;;;8.0;;
21120;SDS011;12519;43.318;21.898;2022-07-23T04:01:19;9.0;;;8.0;;
21120;SDS011;12519;43.318;21.898;2022-07-23T04:05:57;9.0;;;8.0;;
21120;SDS011;12519;43.318;21.898;2022-07-23T04:10:34;9.0;;;8.0;;
21120;SDS011;12519;43.318;21.898;2022-07-23T04:15:11;9.0;;;8.0;;
21120;SDS011;12519;43.318;21.898;2022-07-23T04:19:48;9.0;;;8.0;;
21120;SDS011;12519;43.318;21.898;2022-07-23T04:24:25;8.0;;;8.0;;
21120;SDS011;12519;43.318;21.898;2022-07-23T04:29:02;8.0;;;8.0;;
21120;SDS011;12519;43.318;21.898;2022-07-23T04:33:38;8.0;;;7.0;;
21120;SDS011;12519;43.318;21.898;2022-07-23T04:38:16;8.0;;;7.0;;
21120;SDS011;12519;43.318;21.898;2022-07-23T04:42:53;10.0;;;8.0;;
21120;SDS011;12519;43.318;21.898;2022-07-23T04:47:32;10.0;;;8.0;;
21120;SDS011;12519;43.318;21.898;2022-07-23T04:52:09;13.0;;;9.0;;
21120;SDS011;12519;43.318;21.898;2022-07-23T04:56:46;13.0;;;9.0;;
21120;SDS011;12519;43.318;21.898;2022-07-23T05:01:23;16.0;;;11.0;;
21120;SDS011;12519;43.318;21.898;2022-07-23T05:06:00;16.0;;;11.0;;
21120;SDS011;12519;43.318;21.898;2022-07-23T05:10:36;16.0;;;11.0;;
21120;SDS011;12519;43.318;21.898;2022-07-23T05:15:14;19.0;;;13.0;;
21120;SDS011;12519;43.318;21.898;2022-07-23T05:19:51;19.0;;;13.0;;
21120;SDS011;12519;43.318;21.898;2022-07-23T05:24:28;17.0;;;12.0;;
21120;SDS011;12519;43.318;21.898;2022-07-23T05:29:05;17.0;;;12.0;;
21120;SDS011;12519;43.318;21.898;2022-07-23T05:33:41;15.0;;;11.0;;
21120;SDS011;12519;43.318;21.898;2022-07-23T05:38:18;15.0;;;11.0;;
21120;SDS011;12519;43.318;21.898;2022-07-23T05:42:55;13.0;;;10.0;;
21120;SDS011;12519;43.318;21.898;2022-07-23T05:47:42;13.0;;;10.0;;
21120;SDS011;12519;43.318;21.898;2022-07-23T05:52:21;11.0;;;9.0;;
21120;SDS011;12519;43.318;21.898;2022-07-23T05:56:58;11.0;;;9.0;;
21120;SDS011;12519;43.318;21.898;2022-07-23T06:01:34;11.0;;;9.0;;
21120;SDS011;12519;43.318;21.898;2022-07-23T06:06:10;11.0;;;9.0;;
21120;SDS011;12519;43.318;21.898;2022-07-23T06:10:46;11.0;;;9.0;;
21120;SDS011;12519;43.318;21.898;2022-07-23T06:15:23;11.0;;;9.0;;
21120;SDS011;12519;43.318;21.898;2022-07-23T06:20:00;11.0;;;9.0;;
21120;SDS011;12519;43.318;21.898;2022-07-23T06:24:37;10.0;;;9.0;;
21120;SDS011;12519;43.318;21.898;2022-07-23T06:29:14;10.0;;;9.0;;
21120;SDS011;12519;43.318;21.898;2022-07-23T06:33:51;10.0;;;9.0;;
21120;SDS011;12519;43.318;21.898;2022-07-23T06:38:28;10.0;;;9.0;;
21120;SDS011;12519;43.318;21.898;2022-07-23T06:43:05;11.0;;;10.0;;
21120;SDS011;12519;43.318;21.898;2022-07-23T06:47:42;11.0;;;10.0;;
21120;SDS011;12519;43.318;21.898;2022-07-23T06:52:19;12.0;;;12.0;;
21120;SDS011;12519;43.318;21.898;2022-07-23T06:56:56;12.0;;;12.0;;
21120;SDS011;12519;43.318;21.898;2022-07-23T07:01:33;12.0;;;12.0;;
21120;SDS011;12519;43.318;21.898;2022-07-23T07:06:10;12.0;;;12.0;;
21120;SDS011;12519;43.318;21.898;2022-07-23T07:10:46;12.0;;;12.0;;
21120;SDS011;12519;43.318;21.898;2022-07-23T07:15:24;12.0;;;11.0;;
21120;SDS011;12519;43.318;21.898;2022-07-23T07:20:01;12.0;;;11.0;;
21120;SDS011;12519;43.318;21.898;2022-07-23T07:24:40;14.0;;;12.0;;
21120;SDS011;12519;43.318;21.898;2022-07-23T07:29:17;14.0;;;12.0;;
21120;SDS011;12519;43.318;21.898;2022-07-23T07:33:54;16.0;;;12.0;;
21120;SDS011;12519;43.318;21.898;2022-07-23T07:38:33;16.0;;;12.0;;
21120;SDS011;12519;43.318;21.898;2022-07-23T07:43:11;14.0;;;12.0;;
21120;SDS011;12519;43.318;21.898;2022-07-23T07:47:49;14.0;;;12.0;;
21120;SDS011;12519;43.318;21.898;2022-07-23T07:52:28;13.0;;;13.0;;
21120;SDS011;12519;43.318;21.898;2022-07-23T07:57:05;13.0;;;13.0;;
21120;SDS011;12519;43.318;21.898;2022-07-23T08:01:42;13.0;;;13.0;;
21120;SDS011;12519;43.318;21.898;2022-07-23T08:06:18;13.0;;;13.0;;
21120;SDS011;12519;43.318;21.898;2022-07-23T08:10:55;13.0;;;13.0;;
21120;SDS011;12519;43.318;21.898;2022-07-23T08:24:53;12.0;;;11.0;;
21120;SDS011;12519;43.318;21.898;2022-07-23T08:29:29;12.0;;;11.0;;
21120;SDS011;12519;43.318;21.898;2022-07-23T08:34:05;12.0;;;11.0;;
21120;SDS011;12519;43.318;21.898;2022-07-23T08:38:42;12.0;;;11.0;;
21120;SDS011;12519;43.318;21.898;2022-07-23T08:43:28;12.0;;;10.0;;
21120;SDS011;12519;43.318;21.898;2022-07-23T08:48:15;12.0;;;10.0;;
21120;SDS011;12519;43.318;21.898;2022-07-23T08:52:54;12.0;;;10.0;;
21120;SDS011;12519;43.318;21.898;2022-07-23T08:57:32;12.0;;;10.0;;
21120;SDS011;12519;43.318;21.898;2022-07-23T09:02:08;14.0;;;11.0;;
21120;SDS011;12519;43.318;21.898;2022-07-23T09:06:45;14.0;;;11.0;;
21120;SDS011;12519;43.318;21.898;2022-07-23T09:11:22;14.0;;;11.0;;
21120;SDS011;12519;43.318;21.898;2022-07-23T09:16:08;16.0;;;12.0;;
21120;SDS011;12519;43.318;21.898;2022-07-23T09:21:21;16.0;;;12.0;;
21120;SDS011;12519;43.318;21.898;2022-07-23T09:26:29;14.0;;;12.0;;
21120;SDS011;12519;43.318;21.898;2022-07-23T09:31:16;14.0;;;12.0;;
21120;SDS011;12519;43.318;21.898;2022-07-23T09:35:56;13.0;;;11.0;;
21120;SDS011;12519;43.318;21.898;2022-07-23T09:40:33;13.0;;;11.0;;
21120;SDS011;12519;43.318;21.898;2022-07-23T09:45:11;12.0;;;10.0;;
21120;SDS011;12519;43.318;21.898;2022-07-23T09:50:02;12.0;;;10.0;;
21120;SDS011;12519;43.318;21.898;2022-07-23T09:54:45;11.0;;;9.0;;
21120;SDS011;12519;43.318;21.898;2022-07-23T09:59:40;11.0;;;9.0;;
21120;SDS011;12519;43.318;21.898;2022-07-23T10:04:24;11.0;;;9.0;;
21120;SDS011;12519;43.318;21.898;2022-07-23T10:09:22;11.0;;;9.0;;
21120;SDS011;12519;43.318;21.898;2022-07-23T10:14:10;11.0;;;9.0;;
21120;SDS011;12519;43.318;21.898;2022-07-23T10:18:49;11.0;;;9.0;;
21120;SDS011;12519;43.318;21.898;2022-07-23T10:23:47;11.0;;;9.0;;
21120;SDS011;12519;43.318;21.898;2022-07-23T10:29:36;11.0;;;9.0;;
21120;SDS011;12519;43.318;21.898;2022-07-23T10:34:52;11.0;;;9.0;;
21120;SDS011;12519;43.318;21.898;2022-07-23T10:40:16;11.0;;;9.0;;
21120;SDS011;12519;43.318;21.898;2022-07-23T10:44:57;10.0;;;8.0;;
21120;SDS011;12519;43.318;21.898;2022-07-23T10:49:35;10.0;;;8.0;;
21120;SDS011;12519;43.318;21.898;2022-07-23T10:54:21;8.0;;;8.0;;
21120;SDS011;12519;43.318;21.898;2022-07-23T10:59:04;8.0;;;8.0;;
21120;SDS011;12519;43.318;21.898;2022-07-23T11:03:57;19.0;;;18.0;;
21120;SDS011;12519;43.318;21.898;2022-07-23T11:08:33;19.0;;;18.0;;
21120;SDS011;12519;43.318;21.898;2022-07-23T11:13:38;30.0;;;29.0;;
21120;SDS011;12519;43.318;21.898;2022-07-23T11:19:05;30.0;;;29.0;;
21120;SDS011;12519;43.318;21.898;2022-07-23T11:24:00;19.0;;;18.0;;
21120;SDS011;12519;43.318;21.898;2022-07-23T11:28:42;19.0;;;18.0;;
21120;SDS011;12519;43.318;21.898;2022-07-23T11:33:22;8.0;;;7.0;;
21120;SDS011;12519;43.318;21.898;2022-07-23T11:38:16;8.0;;;7.0;;
21120;SDS011;12519;43.318;21.898;2022-07-23T11:43:04;8.0;;;7.0;;
21120;SDS011;12519;43.318;21.898;2022-07-23T11:47:47;8.0;;;7.0;;
21120;SDS011;12519;43.318;21.898;2022-07-23T11:52:26;8.0;;;7.0;;
21120;SDS011;12519;43.318;21.898;2022-07-23T11:57:06;8.0;;;7.0;;
21120;SDS011;12519;43.318;21.898;2022-07-23T12:01:57;9.0;;;8.0;;
21120;SDS011;12519;43.318;21.898;2022-07-23T12:06:42;9.0;;;8.0;;
21120;SDS011;12519;43.318;21.898;2022-07-23T12:11:19;9.0;;;8.0;;
21120;SDS011;12519;43.318;21.898;2022-07-23T12:15:57;10.0;;;8.0;;
21120;SDS011;12519;43.318;21.898;2022-07-23T12:20:40;10.0;;;8.0;;
21120;SDS011;12519;43.318;21.898;2022-07-23T12:25:33;11.0;;;9.0;;
21120;SDS011;12519;43.318;21.898;2022-07-23T12:30:29;11.0;;;9.0;;
21120;SDS011;12519;43.318;21.898;2022-07-23T12:35:23;12.0;;;10.0;;
21120;SDS011;12519;43.318;21.898;2022-07-23T12:40:28;12.0;;;10.0;;
21120;SDS011;12519;43.318;21.898;2022-07-23T12:45:23;10.0;;;8.0;;
21120;SDS011;12519;43.318;21.898;2022-07-23T12:50:58;10.0;;;8.0;;
21120;SDS011;12519;43.318;21.898;2022-07-23T12:55:47;8.0;;;7.0;;
21120;SDS011;12519;43.318;21.898;2022-07-23T13:00:59;8.0;;;7.0;;
21120;SDS011;12519;43.318;21.898;2022-07-23T13:05:41;8.0;;;7.0;;
21120;SDS011;12519;43.318;21.898;2022-07-23T13:10:18;8.0;;;7.0;;
21120;SDS011;12519;43.318;21.898;2022-07-23T13:14:54;9.0;;;7.0;;
21120;SDS011;12519;43.318;21.898;2022-07-23T13:19:31;9.0;;;7.0;;
21120;SDS011;12519;43.318;21.898;2022-07-23T13:24:12;9.0;;;8.0;;
21120;SDS011;12519;43.318;21.898;2022-07-23T13:28:49;9.0;;;8.0;;
21120;SDS011;12519;43.318;21.898;2022-07-23T13:33:27;9.0;;;8.0;;
21120;SDS011;12519;43.318;21.898;2022-07-23T13:38:06;9.0;;;8.0;;
21120;SDS011;12519;43.318;21.898;2022-07-23T13:42:43;9.0;;;8.0;;
21120;SDS011;12519;43.318;21.898;2022-07-23T13:47:20;9.0;;;8.0;;
21120;SDS011;12519;43.318;21.898;2022-07-23T13:51:56;9.0;;;8.0;;
21120;SDS011;12519;43.318;21.898;2022-07-23T13:56:33;9.0;;;8.0;;
21120;SDS011;12519;43.318;21.898;2022-07-23T14:01:09;9.0;;;8.0;;
21120;SDS011;12519;43.318;21.898;2022-07-23T14:05:46;10.0;;;8.0;;
21120;SDS011;12519;43.318;21.898;2022-07-23T14:10:24;10.0;;;8.0;;
21120;SDS011;12519;43.318;21.898;2022-07-23T14:15:05;11.0;;;7.0;;
21120;SDS011;12519;43.318;21.898;2022-07-23T14:19:44;11.0;;;7.0;;
21120;SDS011;12519;43.318;21.898;2022-07-23T14:24:21;12.0;;;9.0;;
21120;SDS011;12519;43.318;21.898;2022-07-23T14:28:57;12.0;;;9.0;;
21120;SDS011;12519;43.318;21.898;2022-07-23T14:33:34;14.0;;;11.0;;
21120;SDS011;12519;43.318;21.898;2022-07-23T14:38:12;14.0;;;11.0;;
21120;SDS011;12519;43.318;21.898;2022-07-23T14:42:49;12.0;;;10.0;;
21120;SDS011;12519;43.318;21.898;2022-07-23T14:47:27;12.0;;;10.0;;
21120;SDS011;12519;43.318;21.898;2022-07-23T14:52:06;12.0;;;10.0;;
21120;SDS011;12519;43.318;21.898;2022-07-23T14:56:44;11.0;;;9.0;;
21120;SDS011;12519;43.318;21.898;2022-07-23T15:01:23;11.0;;;9.0;;
21120;SDS011;12519;43.318;21.898;2022-07-23T15:06:00;11.0;;;9.0;;
21120;SDS011;12519;43.318;21.898;2022-07-23T15:10:37;11.0;;;9.0;;
21120;SDS011;12519;43.318;21.898;2022-07-23T15:15:14;11.0;;;9.0;;
21120;SDS011;12519;43.318;21.898;2022-07-23T15:19:52;11.0;;;9.0;;
21120;SDS011;12519;43.318;21.898;2022-07-23T15:24:30;10.0;;;8.0;;
21120;SDS011;12519;43.318;21.898;2022-07-23T15:29:07;10.0;;;8.0;;
21120;SDS011;12519;43.318;21.898;2022-07-23T15:33:44;9.0;;;8.0;;
21120;SDS011;12519;43.318;21.898;2022-07-23T15:38:22;9.0;;;8.0;;
21120;SDS011;12519;43.318;21.898;2022-07-23T15:43:03;9.0;;;8.0;;
21120;SDS011;12519;43.318;21.898;2022-07-23T15:47:42;9.0;;;8.0;;
21120;SDS011;12519;43.318;21.898;2022-07-23T15:52:19;9.0;;;8.0;;
21120;SDS011;12519;43.318;21.898;2022-07-23T15:56:56;9.0;;;8.0;;
21120;SDS011;12519;43.318;21.898;2022-07-23T16:01:34;9.0;;;8.0;;
21120;SDS011;12519;43.318;21.898;2022-07-23T16:06:11;11.0;;;9.0;;
21120;SDS011;12519;43.318;21.898;2022-07-23T16:10:48;11.0;;;9.0;;
21120;SDS011;12519;43.318;21.898;2022-07-23T16:15:25;13.0;;;10.0;;
21120;SDS011;12519;43.318;21.898;2022-07-23T16:20:05;13.0;;;10.0;;
21120;SDS011;12519;43.318;21.898;2022-07-23T16:24:46;12.0;;;10.0;;
21120;SDS011;12519;43.318;21.898;2022-07-23T16:29:23;12.0;;;10.0;;
21120;SDS011;12519;43.318;21.898;2022-07-23T16:33:59;10.0;;;10.0;;
21120;SDS011;12519;43.318;21.898;2022-07-23T16:38:37;10.0;;;10.0;;
21120;SDS011;12519;43.318;21.898;2022-07-23T16:43:15;11.0;;;10.0;;
21120;SDS011;12519;43.318;21.898;2022-07-23T16:47:52;11.0;;;10.0;;
21120;SDS011;12519;43.318;21.898;2022-07-23T16:52:28;12.0;;;10.0;;
21120;SDS011;12519;43.318;21.898;2022-07-23T16:57:05;12.0;;;10.0;;
21120;SDS011;12519;43.318;21.898;2022-07-23T17:01:43;12.0;;;10.0;;
21120;SDS011;12519;43.318;21.898;2022-07-23T17:06:19;12.0;;;10.0;;
21120;SDS011;12519;43.318;21.898;2022-07-23T17:10:57;12.0;;;10.0;;
21120;SDS011;12519;43.318;21.898;2022-07-23T17:15:34;12.0;;;11.0;;
21120;SDS011;12519;43.318;21.898;2022-07-23T17:20:12;12.0;;;11.0;;
21120;SDS011;12519;43.318;21.898;2022-07-23T17:24:52;16.0;;;15.0;;
21120;SDS011;12519;43.318;21.898;2022-07-23T17:29:30;16.0;;;15.0;;
21120;SDS011;12519;43.318;21.898;2022-07-23T17:34:08;20.0;;;19.0;;
21120;SDS011;12519;43.318;21.898;2022-07-23T17:38:46;20.0;;;19.0;;
21120;SDS011;12519;43.318;21.898;2022-07-23T17:43:25;18.0;;;16.0;;
21120;SDS011;12519;43.318;21.898;2022-07-23T17:48:03;18.0;;;16.0;;
21120;SDS011;12519;43.318;21.898;2022-07-23T17:52:52;15.0;;;13.0;;
21120;SDS011;12519;43.318;21.898;2022-07-23T17:57:34;15.0;;;13.0;;
21120;SDS011;12519;43.318;21.898;2022-07-23T18:02:13;15.0;;;13.0;;
21120;SDS011;12519;43.318;21.898;2022-07-23T18:06:50;15.0;;;12.0;;
21120;SDS011;12519;43.318;21.898;2022-07-23T18:11:27;15.0;;;12.0;;
21120;SDS011;12519;43.318;21.898;2022-07-23T18:16:05;15.0;;;12.0;;
21120;SDS011;12519;43.318;21.898;2022-07-23T18:20:44;15.0;;;12.0;;
21120;SDS011;12519;43.318;21.898;2022-07-23T18:25:23;106.0;;;99.0;;
21120;SDS011;12519;43.318;21.898;2022-07-23T18:30:01;106.0;;;99.0;;
21120;SDS011;12519;43.318;21.898;2022-07-23T18:34:43;197.0;;;186.0;;
21120;SDS011;12519;43.318;21.898;2022-07-23T18:39:21;197.0;;;186.0;;
21120;SDS011;12519;43.318;21.898;2022-07-23T18:43:59;111.0;;;104.0;;
21120;SDS011;12519;43.318;21.898;2022-07-23T18:48:36;111.0;;;104.0;;
21120;SDS011;12519;43.318;21.898;2022-07-23T18:53:13;25.0;;;22.0;;
21120;SDS011;12519;43.318;21.898;2022-07-23T18:57:50;25.0;;;22.0;;
21120;SDS011;12519;43.318;21.898;2022-07-23T19:02:27;25.0;;;22.0;;
21120;SDS011;12519;43.318;21.898;2022-07-23T19:07:03;18.0;;;16.0;;
21120;SDS011;12519;43.318;21.898;2022-07-23T19:11:40;18.0;;;16.0;;
21120;SDS011;12519;43.318;21.898;2022-07-23T19:16:16;12.0;;;10.0;;
21120;SDS011;12519;43.318;21.898;2022-07-23T19:20:53;12.0;;;10.0;;
21120;SDS011;12519;43.318;21.898;2022-07-23T19:25:31;12.0;;;10.0;;
21120;SDS011;12519;43.318;21.898;2022-07-23T19:30:11;12.0;;;10.0;;
21120;SDS011;12519;43.318;21.898;2022-07-23T19:34:48;13.0;;;11.0;;
21120;SDS011;12519;43.318;21.898;2022-07-23T19:39:25;13.0;;;11.0;;
21120;SDS011;12519;43.318;21.898;2022-07-23T19:44:03;11.0;;;10.0;;
21120;SDS011;12519;43.318;21.898;2022-07-23T19:48:40;11.0;;;10.0;;
21120;SDS011;12519;43.318;21.898;2022-07-23T19:53:16;9.0;;;8.0;;
21120;SDS011;12519;43.318;21.898;2022-07-23T19:57:54;9.0;;;8.0;;
21120;SDS011;12519;43.318;21.898;2022-07-23T20:02:32;9.0;;;8.0;;
21120;SDS011;12519;43.318;21.898;2022-07-23T20:07:09;9.0;;;8.0;;
21120;SDS011;12519;43.318;21.898;2022-07-23T20:11:47;9.0;;;8.0;;
21120;SDS011;12519;43.318;21.898;2022-07-23T20:16:25;9.0;;;9.0;;
21120;SDS011;12519;43.318;21.898;2022-07-23T20:21:04;9.0;;;9.0;;
21120;SDS011;12519;43.318;21.898;2022-07-23T20:25:42;10.0;;;8.0;;
21120;SDS011;12519;43.318;21.898;2022-07-23T20:30:19;10.0;;;8.0;;
21120;SDS011;12519;43.318;21.898;2022-07-23T20:34:56;11.0;;;8.0;;
21120;SDS011;12519;43.318;21.898;2022-07-23T20:39:34;11.0;;;8.0;;
21120;SDS011;12519;43.318;21.898;2022-07-23T20:44:11;14.0;;;10.0;;
21120;SDS011;12519;43.318;21.898;2022-07-23T20:48:49;14.0;;;10.0;;
21120;SDS011;12519;43.318;21.898;2022-07-23T20:53:27;16.0;;;11.0;;
21120;SDS011;12519;43.318;21.898;2022-07-23T20:58:04;16.0;;;11.0;;
21120;SDS011;12519;43.318;21.898;2022-07-23T21:02:43;16.0;;;11.0;;
21120;SDS011;12519;43.318;21.898;2022-07-23T21:07:21;12.0;;;10.0;;
21120;SDS011;12519;43.318;21.898;2022-07-23T21:11:58;12.0;;;10.0;;
21120;SDS011;12519;43.318;21.898;2022-07-23T21:16:35;9.0;;;8.0;;
21120;SDS011;12519;43.318;21.898;2022-07-23T21:21:12;9.0;;;8.0;;
21120;SDS011;12519;43.318;21.898;2022-07-23T21:25:49;8.0;;;8.0;;
21120;SDS011;12519;43.318;21.898;2022-07-23T21:30:26;8.0;;;8.0;;
21120;SDS011;12519;43.318;21.898;2022-07-23T21:35:05;8.0;;;8.0;;
21120;SDS011;12519;43.318;21.898;2022-07-23T21:39:45;8.0;;;8.0;;
21120;SDS011;12519;43.318;21.898;2022-07-23T21:44:21;10.0;;;8.0;;
21120;SDS011;12519;43.318;21.898;2022-07-23T21:48:59;10.0;;;8.0;;
21120;SDS011;12519;43.318;21.898;2022-07-23T21:53:36;11.0;;;8.0;;
21120;SDS011;12519;43.318;21.898;2022-07-23T21:58:13;11.0;;;8.0;;
21120;SDS011;12519;43.318;21.898;2022-07-23T22:02:49;11.0;;;8.0;;
21120;SDS011;12519;43.318;21.898;2022-07-23T22:07:26;10.0;;;8.0;;
21120;SDS011;12519;43.318;21.898;2022-07-23T22:12:04;10.0;;;8.0;;
21120;SDS011;12519;43.318;21.898;2022-07-23T22:16:43;8.0;;;8.0;;
21120;SDS011;12519;43.318;21.898;2022-07-23T22:21:20;8.0;;;8.0;;
21120;SDS011;12519;43.318;21.898;2022-07-23T22:25:56;9.0;;;8.0;;
21120;SDS011;12519;43.318;21.898;2022-07-23T22:30:33;9.0;;;8.0;;
21120;SDS011;12519;43.318;21.898;2022-07-23T22:35:11;10.0;;;9.0;;
21120;SDS011;12519;43.318;21.898;2022-07-23T22:39:51;10.0;;;9.0;;
21120;SDS011;12519;43.318;21.898;2022-07-23T22:44:28;10.0;;;9.0;;
21120;SDS011;12519;43.318;21.898;2022-07-23T22:49:05;10.0;;;9.0;;
21120;SDS011;12519;43.318;21.898;2022-07-23T22:53:42;10.0;;;9.0;;
21120;SDS011;12519;43.318;21.898;2022-07-23T22:58:20;10.0;;;9.0;;
21120;SDS011;12519;43.318;21.898;2022-07-23T23:02:58;10.0;;;9.0;;
21120;SDS011;12519;43.318;21.898;2022-07-23T23:07:35;10.0;;;8.0;;
21120;SDS011;12519;43.318;21.898;2022-07-23T23:12:12;10.0;;;8.0;;
21120;SDS011;12519;43.318;21.898;2022-07-23T23:16:50;9.0;;;8.0;;
21120;SDS011;12519;43.318;21.898;2022-07-23T23:21:28;9.0;;;8.0;;
21120;SDS011;12519;43.318;21.898;2022-07-23T23:26:05;10.0;;;8.0;;
21120;SDS011;12519;43.318;21.898;2022-07-23T23:30:43;10.0;;;8.0;;
21120;SDS011;12519;43.318;21.898;2022-07-23T23:35:20;12.0;;;9.0;;
21120;SDS011;12519;43.318;21.898;2022-07-23T23:39:58;12.0;;;9.0;;
21120;SDS011;12519;43.318;21.898;2022-07-23T23:44:35;10.0;;;8.0;;
21120;SDS011;12519;43.318;21.898;2022-07-23T23:49:12;10.0;;;8.0;;
21120;SDS011;12519;43.318;21.898;2022-07-23T23:53:49;9.0;;;7.0;;
21120;SDS011;12519;43.318;21.898;2022-07-23T23:58:26;9.0;;;7.0;;
